createdAt,value
2023-04-21T00:01:41.363Z,83.87
2023-04-21T00:04:09.925Z,84.31
2023-04-21T00:06:37.977Z,83.15
2023-04-21T00:09:07.389Z,82.77
2023-04-21T00:11:35.589Z,83.55
2023-04-21T00:14:03.863Z,84.08
2023-04-21T00:16:31.935Z,84.17
2023-04-21T00:19:00.081Z,83.31
2023-04-21T00:21:28.013Z,83.70
2023-04-21T00:23:55.986Z,82.67
2023-04-21T00:26:25.547Z,82.02
2023-04-21T00:28:53.860Z,80.99
2023-04-21T00:31:21.980Z,81.04
2023-04-21T00:33:50.001Z,80.71
2023-04-21T00:36:17.942Z,80.94
2023-04-21T00:38:45.876Z,81.00
2023-04-21T00:41:15.766Z,79.63
2023-04-21T00:44:02.866Z,79.72
2023-04-21T00:46:33.068Z,79.86
2023-04-21T00:49:04.326Z,80.14
2023-04-21T00:51:34.555Z,79.62
2023-04-21T00:54:05.147Z,80.08
2023-04-21T00:56:34.993Z,79.68
2023-04-21T00:59:05.088Z,79.77
2023-04-21T01:01:34.300Z,79.97
2023-04-21T01:04:03.528Z,79.73
2023-04-21T01:06:34.122Z,79.50
2023-04-21T01:09:02.428Z,79.63
2023-04-21T01:11:30.326Z,80.18
2023-04-21T01:13:58.370Z,79.65
2023-04-21T01:16:28.118Z,80.16
2023-04-21T01:18:56.274Z,80.12
2023-04-21T01:21:24.702Z,80.28
2023-04-21T01:23:54.314Z,80.61
2023-04-21T01:26:23.638Z,81.80
2023-04-21T01:28:51.643Z,80.89
2023-04-21T01:31:21.155Z,81.78
2023-04-21T01:33:49.235Z,82.30
2023-04-21T01:36:17.705Z,82.07
2023-04-21T01:38:45.812Z,81.55
2023-04-21T01:41:15.230Z,81.78
2023-04-21T01:43:43.167Z,82.50
2023-04-21T01:46:11.340Z,81.43
2023-04-21T01:48:39.328Z,82.53
2023-04-21T01:51:07.446Z,81.79
2023-04-21T01:53:35.449Z,82.69
2023-04-21T01:56:03.472Z,82.39
2023-04-21T01:58:33.678Z,82.70
2023-04-21T02:01:01.687Z,82.11
2023-04-21T02:03:29.726Z,83.00
2023-04-21T02:05:57.842Z,83.52
2023-04-21T02:08:25.805Z,82.65
2023-04-21T02:10:53.734Z,82.12
2023-04-21T02:13:21.676Z,82.59
2023-04-21T02:15:59.548Z,83.04
2023-04-21T02:18:34.554Z,83.21
2023-04-21T02:21:03.063Z,82.99
2023-04-21T02:23:31.004Z,83.19
2023-04-21T02:25:58.922Z,82.79
2023-04-21T02:28:26.826Z,83.60
2023-04-21T02:30:56.251Z,84.17
2023-04-21T02:33:24.703Z,84.28
2023-04-21T02:35:52.622Z,84.40
2023-04-21T02:38:20.610Z,84.13
2023-04-21T02:40:48.759Z,83.04
2023-04-21T02:43:16.733Z,83.18
2023-04-21T02:45:44.874Z,83.13
2023-04-21T02:48:14.934Z,82.94
2023-04-21T02:50:44.425Z,83.67
2023-04-21T02:53:12.388Z,83.74
2023-04-21T02:55:40.867Z,82.48
2023-04-21T02:58:10.304Z,83.21
2023-04-21T03:00:38.395Z,83.44
2023-04-21T03:03:06.801Z,83.34
2023-04-21T03:05:36.236Z,82.96
2023-04-21T03:08:04.200Z,82.81
2023-04-21T03:10:32.177Z,83.48
2023-04-21T03:13:00.108Z,83.15
2023-04-21T03:15:28.276Z,83.50
2023-04-21T03:17:56.342Z,82.73
2023-04-21T03:20:26.387Z,83.77
2023-04-21T03:22:55.935Z,84.14
2023-04-21T03:25:24.141Z,84.52
2023-04-21T03:27:52.158Z,83.58
2023-04-21T03:30:20.947Z,83.24
2023-04-21T03:32:48.988Z,83.67
2023-04-21T03:35:17.257Z,82.69
2023-04-21T03:37:45.278Z,82.75
2023-04-21T03:40:14.706Z,82.75
2023-04-21T03:42:43.572Z,83.05
2023-04-21T03:45:11.747Z,83.69
2023-04-21T03:47:39.692Z,83.46
2023-04-21T03:50:08.730Z,83.24
2023-04-21T03:52:36.632Z,84.00
2023-04-21T03:55:05.171Z,83.27
2023-04-21T03:57:34.433Z,83.34
2023-04-21T04:00:02.366Z,83.23
2023-04-21T04:02:40.750Z,82.87
2023-04-21T04:05:09.714Z,83.84
2023-04-21T04:07:37.837Z,84.28
2023-04-21T04:10:06.115Z,85.84
2023-04-21T04:12:35.531Z,87.85
2023-04-21T04:15:03.697Z,87.49
2023-04-21T04:17:31.601Z,85.53
2023-04-21T04:19:59.596Z,84.40
2023-04-21T04:22:27.528Z,84.03
2023-04-21T04:24:55.691Z,83.53
2023-04-21T04:27:23.596Z,82.40
2023-04-21T04:29:53.164Z,82.66
2023-04-21T04:32:21.822Z,82.70
2023-04-21T04:34:49.789Z,82.36
2023-04-21T04:37:17.726Z,82.51
2023-04-21T04:39:45.746Z,82.66
2023-04-21T04:42:14.605Z,83.87
2023-04-21T04:44:42.594Z,83.79
2023-04-21T04:47:12.622Z,83.69
2023-04-21T04:49:40.577Z,84.20
2023-04-21T04:52:08.514Z,84.23
2023-04-21T04:54:36.436Z,84.41
2023-04-21T04:57:04.487Z,84.87
2023-04-21T04:59:32.415Z,84.46
2023-04-21T05:02:00.578Z,83.89
2023-04-21T05:04:30.172Z,83.26
2023-04-21T05:06:58.214Z,85.27
2023-04-21T05:09:26.463Z,87.88
2023-04-21T05:11:54.465Z,87.27
2023-04-21T05:14:22.486Z,88.50
2023-04-21T05:16:50.472Z,88.09
2023-04-21T05:19:18.915Z,87.11
2023-04-21T05:21:48.301Z,86.31
2023-04-21T05:24:16.239Z,86.61
2023-04-21T05:26:44.104Z,86.06
2023-04-21T05:29:12.034Z,85.70
2023-04-21T05:31:40.097Z,85.06
2023-04-21T05:34:08.018Z,85.36
2023-04-21T05:36:35.956Z,84.04
2023-04-21T05:39:06.375Z,83.88
2023-04-21T05:41:34.288Z,83.32
2023-04-21T05:44:02.313Z,84.34
2023-04-21T05:46:30.954Z,84.08
2023-04-21T05:48:58.909Z,83.98
2023-04-21T05:51:27.142Z,82.89
2023-04-21T05:53:55.224Z,82.69
2023-04-21T05:56:24.509Z,82.37
2023-04-21T05:58:52.559Z,82.97
2023-04-21T06:01:20.453Z,83.39
2023-04-21T06:03:50.412Z,84.09
2023-04-21T06:06:19.183Z,84.01
2023-04-21T06:08:47.132Z,83.09
2023-04-21T06:11:15.100Z,83.67
2023-04-21T06:13:44.793Z,83.08
2023-04-21T06:16:12.776Z,82.11
2023-04-21T06:18:40.771Z,82.62
2023-04-21T06:21:08.831Z,82.28
2023-04-21T06:23:36.719Z,83.16
2023-04-21T06:26:06.824Z,82.64
2023-04-21T06:28:36.137Z,83.19
2023-04-21T06:31:08.862Z,85.01
2023-04-21T06:33:37.468Z,85.69
2023-04-21T06:36:06.171Z,85.47
2023-04-21T06:38:34.309Z,84.93
2023-04-21T06:41:02.519Z,84.31
2023-04-21T06:43:30.537Z,84.46
2023-04-21T06:45:59.146Z,84.12
2023-04-21T06:48:29.949Z,83.09
2023-04-21T06:50:58.302Z,82.99
2023-04-21T06:53:26.491Z,82.64
2023-04-21T06:55:54.501Z,83.91
2023-04-21T06:58:22.419Z,83.54
2023-04-21T07:00:50.346Z,84.38
2023-04-21T07:03:18.345Z,83.88
2023-04-21T07:05:47.751Z,84.46
2023-04-21T07:08:15.756Z,83.83
2023-04-21T07:10:43.660Z,84.56
2023-04-21T07:13:11.608Z,84.15
2023-04-21T07:15:39.591Z,83.40
2023-04-21T07:18:07.596Z,83.60
2023-04-21T07:20:35.628Z,84.03
2023-04-21T07:23:04.960Z,83.83
2023-04-21T07:25:32.884Z,83.53
2023-04-21T07:28:00.778Z,83.28
2023-04-21T07:30:29.434Z,84.81
2023-04-21T07:32:57.838Z,84.41
2023-04-21T07:35:25.840Z,84.11
2023-04-21T07:37:53.846Z,84.36
2023-04-21T07:40:23.146Z,84.54
2023-04-21T07:42:51.139Z,85.14
2023-04-21T07:45:19.239Z,85.92
2023-04-21T07:47:47.325Z,87.61
2023-04-21T07:50:15.294Z,87.74
2023-04-21T07:52:43.211Z,89.23
2023-04-21T07:55:11.374Z,91.12
2023-04-21T07:57:40.699Z,89.73
2023-04-21T08:00:10.440Z,89.91
2023-04-21T08:02:41.837Z,90.71
2023-04-21T08:05:10.365Z,91.33
2023-04-21T08:07:38.959Z,91.18
2023-04-21T08:10:08.244Z,91.68
2023-04-21T08:12:36.169Z,91.71
2023-04-21T08:15:08.463Z,91.96
2023-04-21T08:17:36.654Z,91.17
2023-04-21T08:20:05.356Z,90.22
2023-04-21T08:22:33.476Z,90.69
2023-04-21T08:25:01.491Z,90.57
2023-04-21T08:27:29.656Z,89.71
2023-04-21T08:29:57.714Z,90.74
2023-04-21T08:32:27.538Z,91.04
2023-04-21T08:34:56.109Z,90.29
2023-04-21T08:37:24.216Z,90.96
2023-04-21T08:39:53.593Z,90.32
2023-04-21T08:42:21.892Z,90.52
2023-04-21T08:44:49.959Z,90.67
2023-04-21T08:47:18.193Z,89.82
2023-04-21T08:49:50.919Z,89.69
2023-04-21T08:52:19.470Z,89.96
2023-04-21T08:54:51.832Z,89.65
2023-04-21T08:57:19.932Z,89.84
2023-04-21T08:59:47.918Z,89.71
2023-04-21T09:02:17.616Z,89.29
2023-04-21T09:04:48.912Z,90.27
2023-04-21T09:07:33.263Z,89.80
2023-04-21T09:10:01.697Z,88.73
2023-04-21T09:12:30.939Z,89.71
2023-04-21T09:14:59.250Z,89.52
2023-04-21T09:17:33.481Z,89.09
2023-04-21T09:20:15.561Z,88.00
2023-04-21T09:22:43.668Z,88.42
2023-04-21T09:25:11.690Z,90.47
2023-04-21T09:27:39.753Z,91.20
2023-04-21T09:30:09.412Z,90.42
2023-04-21T09:32:39.167Z,90.17
2023-04-21T09:35:11.204Z,90.17
2023-04-21T09:37:39.430Z,90.27
2023-04-21T09:40:08.394Z,90.29
2023-04-21T09:42:39.447Z,89.01
2023-04-21T09:45:32.413Z,89.60
2023-04-21T09:48:00.819Z,89.29
2023-04-21T09:53:06.976Z,89.85
2023-04-21T09:55:36.216Z,89.98
2023-04-21T09:58:07.026Z,89.56
2023-04-21T10:00:39.450Z,89.23
2023-04-21T10:03:11.541Z,88.73
2023-04-21T10:05:42.704Z,88.28
2023-04-21T10:08:12.722Z,88.08
2023-04-21T10:10:41.115Z,87.93
2023-04-21T10:13:14.742Z,88.38
2023-04-21T10:15:43.510Z,88.01
2023-04-21T10:18:19.222Z,86.38
2023-04-21T10:20:56.452Z,88.82
2023-04-21T10:23:31.345Z,89.10
2023-04-21T10:26:04.463Z,88.40
2023-04-21T10:28:49.543Z,88.03
2023-04-21T10:31:23.183Z,87.87
2023-04-21T10:34:20.337Z,88.05
2023-04-21T10:37:13.121Z,88.42
2023-04-21T10:39:53.360Z,87.50
2023-04-21T10:42:27.449Z,87.21
2023-04-21T10:45:04.067Z,86.48
2023-04-21T10:47:38.013Z,86.66
2023-04-21T10:50:14.825Z,87.32
2023-04-21T10:52:48.183Z,87.80
2023-04-21T10:55:17.180Z,87.25
2023-04-21T10:57:46.638Z,87.40
2023-04-21T11:00:20.376Z,87.46
2023-04-21T11:03:07.175Z,86.82
2023-04-21T11:05:38.719Z,87.05
2023-04-21T11:08:11.406Z,87.36
2023-04-21T11:10:54.625Z,87.66
2023-04-21T11:13:23.937Z,87.99
2023-04-21T11:16:00.542Z,87.67
2023-04-21T11:18:37.729Z,88.04
2023-04-21T11:21:10.469Z,88.26
2023-04-21T11:23:43.176Z,87.63
2023-04-21T11:26:11.195Z,87.57
2023-04-21T11:28:41.568Z,87.81
2023-04-21T11:31:09.711Z,88.29
2023-04-21T11:33:38.166Z,89.10
2023-04-21T11:36:07.528Z,88.24
2023-04-21T11:38:41.544Z,88.13
2023-04-21T11:41:10.965Z,88.00
2023-04-21T11:43:39.554Z,87.70
2023-04-21T11:46:25.068Z,88.71
2023-04-21T11:49:04.477Z,88.39
2023-04-21T11:51:37.364Z,88.08
2023-04-21T11:54:09.149Z,87.73
2023-04-21T11:56:38.627Z,86.62
2023-04-21T11:59:09.837Z,87.09
2023-04-21T12:01:44.606Z,87.48
2023-04-21T12:04:16.197Z,87.13
2023-04-21T12:06:45.345Z,86.45
2023-04-21T12:09:21.000Z,88.19
2023-04-21T12:11:50.332Z,88.04
2023-04-21T12:14:19.563Z,87.07
2023-04-21T12:16:49.924Z,86.92
2023-04-21T12:19:26.485Z,86.06
2023-04-21T12:21:55.793Z,86.33
2023-04-21T12:24:25.477Z,85.96
2023-04-21T12:26:53.623Z,85.37
2023-04-21T12:29:21.608Z,85.62
2023-04-21T12:31:49.605Z,85.68
2023-04-21T12:34:17.693Z,84.92
2023-04-21T12:36:45.784Z,85.52
2023-04-21T12:39:14.252Z,85.18
2023-04-21T12:41:43.571Z,84.65
2023-04-21T12:44:11.638Z,84.70
2023-04-21T12:46:39.679Z,85.64
2023-04-21T12:49:10.029Z,86.25
2023-04-21T12:51:38.239Z,85.56
2023-04-21T12:54:06.442Z,84.30
2023-04-21T12:56:34.517Z,84.49
2023-04-21T12:59:04.264Z,84.07
2023-04-21T13:01:32.290Z,84.43
2023-04-21T13:04:01.238Z,84.69
2023-04-21T13:06:29.409Z,84.32
2023-04-21T13:08:57.433Z,84.20
2023-04-21T13:11:25.554Z,84.53
2023-04-21T13:13:53.521Z,83.47
2023-04-21T13:16:22.869Z,84.74
2023-04-21T13:18:50.945Z,83.44
2023-04-21T13:21:18.914Z,82.95
2023-04-21T13:23:47.120Z,80.84
2023-04-21T13:26:16.017Z,82.25
2023-04-21T13:28:44.140Z,81.78
2023-04-21T13:31:12.223Z,80.60
2023-04-21T13:33:42.193Z,80.08
2023-04-21T13:36:12.789Z,79.77
2023-04-21T13:38:41.554Z,79.90
2023-04-21T13:41:09.604Z,78.83
2023-04-21T13:43:37.605Z,78.66
2023-04-21T13:46:05.687Z,78.90
2023-04-21T13:48:33.761Z,78.79
2023-04-21T13:51:03.314Z,79.11
2023-04-21T13:53:31.303Z,79.11
2023-04-21T13:55:59.494Z,78.38
2023-04-21T13:58:27.878Z,78.20
2023-04-21T14:00:56.052Z,78.31
2023-04-21T14:03:24.361Z,76.52
2023-04-21T14:05:52.501Z,76.73
2023-04-21T14:08:22.086Z,77.77
2023-04-21T14:10:50.133Z,78.46
2023-04-21T14:15:51.663Z,76.86
2023-04-21T14:18:19.878Z,75.72
2023-04-21T14:20:48.113Z,75.46
2023-04-21T14:23:16.413Z,75.71
2023-04-21T14:25:45.746Z,76.23
2023-04-21T14:28:13.734Z,75.45
2023-04-21T14:30:43.119Z,76.42
2023-04-21T14:33:11.447Z,76.49
2023-04-21T14:35:39.567Z,76.78
2023-04-21T14:38:08.439Z,76.76
2023-04-21T14:40:36.488Z,75.97
2023-04-21T14:43:06.003Z,75.78
2023-04-21T14:45:34.132Z,75.36
2023-04-21T14:48:02.395Z,75.46
2023-04-21T14:50:30.800Z,75.93
2023-04-21T14:52:58.725Z,75.55
2023-04-21T14:55:26.780Z,75.22
2023-04-21T14:57:54.742Z,74.84
2023-04-21T15:00:24.302Z,75.28
2023-04-21T15:02:52.938Z,75.93
2023-04-21T15:05:21.601Z,75.51
2023-04-21T15:07:49.597Z,75.36
2023-04-21T15:10:17.866Z,74.58
2023-04-21T15:12:46.188Z,74.26
2023-04-21T15:15:14.158Z,74.12
2023-04-21T15:17:43.510Z,74.03
2023-04-21T15:20:12.385Z,74.59
2023-04-21T15:22:40.439Z,74.25
2023-04-21T15:25:09.155Z,73.82
2023-04-21T15:27:37.792Z,73.92
2023-04-21T15:30:06.608Z,74.51
2023-04-21T15:32:34.810Z,74.80
2023-04-21T15:35:04.300Z,74.33
2023-04-21T15:37:32.355Z,73.29
2023-04-21T15:40:00.386Z,73.16
2023-04-21T15:42:28.609Z,73.55
2023-04-21T15:44:57.352Z,72.96
2023-04-21T15:47:25.436Z,73.41
2023-04-21T15:49:53.405Z,73.56
2023-04-21T15:52:22.970Z,73.77
2023-04-21T15:54:51.264Z,73.55
2023-04-21T15:57:19.331Z,74.62
2023-04-21T15:59:47.317Z,75.63
2023-04-21T16:02:15.745Z,76.15
2023-04-21T16:04:44.441Z,75.61
2023-04-21T16:07:13.016Z,76.29
2023-04-21T16:09:42.439Z,76.88
2023-04-21T16:12:10.559Z,76.54
2023-04-21T16:14:53.621Z,76.49
2023-04-21T16:17:26.743Z,76.72
2023-04-21T16:19:54.893Z,76.98
2023-04-21T16:22:22.832Z,76.74
2023-04-21T16:24:53.199Z,76.81
2023-04-21T16:27:21.475Z,76.96
2023-04-21T16:29:50.275Z,76.72
2023-04-21T16:32:18.353Z,77.31
2023-04-21T16:34:46.361Z,76.47
2023-04-21T16:37:14.439Z,76.83
2023-04-21T16:39:42.398Z,76.59
2023-04-21T16:42:11.746Z,76.41
2023-04-21T16:44:40.165Z,76.06
2023-04-21T16:47:08.848Z,76.13
2023-04-21T16:49:36.856Z,76.54
2023-04-21T16:52:04.977Z,76.46
2023-04-21T16:54:32.943Z,77.32
2023-04-21T16:57:02.375Z,77.77
2023-04-21T16:59:33.058Z,78.46
2023-04-21T17:02:01.394Z,78.08
2023-04-21T17:04:29.479Z,77.48
2023-04-21T17:06:57.502Z,77.44
2023-04-21T17:09:25.503Z,77.29
2023-04-21T17:11:53.488Z,78.03
2023-04-21T17:14:21.473Z,77.68
2023-04-21T17:16:51.055Z,77.48
2023-04-21T17:19:19.339Z,77.79
2023-04-21T17:21:47.312Z,78.58
2023-04-21T17:24:15.235Z,78.40
2023-04-21T17:26:43.374Z,79.10
2023-04-21T17:29:11.362Z,78.96
2023-04-21T17:31:39.349Z,78.75
2023-04-21T17:34:08.705Z,79.81
2023-04-21T17:36:36.850Z,79.70
2023-04-21T17:39:05.422Z,81.18
2023-04-21T17:41:33.677Z,81.59
2023-04-21T17:44:01.593Z,82.20
2023-04-21T17:46:29.582Z,83.06
2023-04-21T17:48:57.543Z,82.99
2023-04-21T17:51:28.781Z,82.20
2023-04-21T17:53:56.760Z,83.09
2023-04-21T17:56:24.872Z,83.16
2023-04-21T17:58:52.783Z,81.85
2023-04-21T18:01:21.003Z,81.71
2023-04-21T18:03:49.129Z,81.94
2023-04-21T18:06:17.313Z,81.45
2023-04-21T18:08:46.686Z,81.27
2023-04-21T18:11:14.708Z,81.58
2023-04-21T18:13:42.642Z,81.68
2023-04-21T18:16:10.607Z,82.44
2023-04-21T18:18:38.699Z,82.89
2023-04-21T18:21:06.890Z,83.22
2023-04-21T18:23:35.984Z,82.90
2023-04-21T18:26:05.524Z,83.78
2023-04-21T18:28:33.485Z,84.09
2023-04-21T18:31:01.745Z,84.47
2023-04-21T18:33:30.137Z,85.17
2023-04-21T18:35:58.088Z,85.02
2023-04-21T18:38:26.100Z,85.45
2023-04-21T18:40:54.027Z,85.74
2023-04-21T18:43:25.507Z,85.86
2023-04-21T18:45:53.499Z,86.00
2023-04-21T18:48:21.428Z,86.19
2023-04-21T18:50:49.655Z,86.21
2023-04-21T18:53:17.606Z,87.00
2023-04-21T18:55:45.710Z,87.20
2023-04-21T18:58:13.746Z,87.31
2023-04-21T19:00:43.162Z,87.32
2023-04-21T19:03:11.703Z,87.25
2023-04-21T19:05:40.678Z,87.24
2023-04-21T19:08:10.311Z,87.36
2023-04-21T19:10:38.948Z,87.74
2023-04-21T19:13:06.963Z,87.63
2023-04-21T19:15:35.126Z,88.00
2023-04-21T19:18:04.675Z,88.24
2023-04-21T19:20:32.943Z,88.36
2023-04-21T19:23:03.563Z,88.11
2023-04-21T19:25:31.944Z,88.80
2023-04-21T19:28:01.230Z,89.16
2023-04-21T19:30:29.293Z,88.88
2023-04-21T19:32:57.287Z,88.60
2023-04-21T19:35:26.851Z,88.09
2023-04-21T19:37:54.806Z,88.03
2023-04-21T19:40:22.821Z,88.53
2023-04-21T19:42:50.864Z,89.83
2023-04-21T19:45:18.817Z,89.27
2023-04-21T19:47:47.700Z,88.94
2023-04-21T19:50:16.021Z,88.98
2023-04-21T19:52:46.573Z,88.94
2023-04-21T19:55:14.807Z,89.20
2023-04-21T19:57:42.765Z,89.33
2023-04-21T20:00:12.576Z,89.37
2023-04-21T20:02:40.672Z,89.69
2023-04-21T20:05:10.077Z,89.63
2023-04-21T20:07:38.570Z,89.63
2023-04-21T20:10:09.335Z,89.78
2023-04-21T20:12:37.367Z,89.53
2023-04-21T20:15:06.210Z,89.65
2023-04-21T20:17:34.314Z,89.49
2023-04-21T20:20:05.237Z,89.58
2023-04-21T20:22:33.231Z,89.93
2023-04-21T20:25:01.145Z,89.68
2023-04-21T20:27:30.764Z,89.78
2023-04-21T20:29:58.870Z,90.05
2023-04-21T20:32:27.146Z,90.06
2023-04-21T20:34:55.205Z,89.90
2023-04-21T20:37:23.422Z,89.60
2023-04-21T20:39:51.385Z,90.25
2023-04-21T20:42:20.137Z,90.98
2023-04-21T20:44:49.464Z,90.90
2023-04-21T20:47:17.582Z,90.50
2023-04-21T20:49:47.383Z,90.17
2023-04-21T20:52:16.170Z,90.53
2023-04-21T20:54:44.325Z,90.21
2023-04-21T20:57:12.654Z,90.28
2023-04-21T20:59:41.010Z,90.64
2023-04-21T21:02:10.869Z,90.83
2023-04-21T21:04:38.956Z,90.93
2023-04-21T21:07:07.063Z,91.54
2023-04-21T21:09:35.193Z,91.53
2023-04-21T21:12:03.640Z,90.96
2023-04-21T21:14:31.630Z,91.24
2023-04-21T21:16:59.850Z,92.02
2023-04-21T21:19:29.279Z,92.09
2023-04-21T21:21:57.460Z,91.43
2023-04-21T21:24:26.458Z,90.95
2023-04-21T21:26:54.489Z,91.06
2023-04-21T21:29:22.426Z,91.17
2023-04-21T21:31:50.402Z,91.04
2023-04-21T21:34:18.456Z,90.43
2023-04-21T21:36:47.720Z,90.79
2023-04-21T21:39:15.808Z,90.50
2023-04-21T21:41:43.719Z,90.11
2023-04-21T21:44:11.662Z,90.49
2023-04-21T21:46:39.892Z,90.92
2023-04-21T21:49:08.462Z,91.05
2023-04-21T21:51:36.421Z,91.82
2023-04-21T21:54:06.598Z,91.12
2023-04-21T21:56:34.689Z,92.05
2023-04-21T21:59:02.609Z,91.74
2023-04-21T22:01:30.599Z,91.69
2023-04-21T22:03:58.670Z,92.20
2023-04-21T22:06:28.995Z,92.55
2023-04-21T22:08:57.022Z,91.88
2023-04-21T22:11:26.398Z,91.71
2023-04-21T22:13:54.519Z,91.01
2023-04-21T22:16:22.444Z,91.34
2023-04-21T22:18:50.906Z,91.60
2023-04-21T22:21:20.522Z,91.66
2023-04-21T22:23:48.543Z,91.29
2023-04-21T22:26:16.492Z,91.31
2023-04-21T22:28:49.848Z,91.64
2023-04-21T22:31:18.192Z,91.27
2023-04-21T22:33:46.197Z,91.89
2023-04-21T22:36:14.177Z,91.49
2023-04-21T22:38:43.615Z,91.66
2023-04-21T22:41:11.590Z,94.38
2023-04-21T22:43:39.797Z,94.13
2023-04-21T22:46:09.274Z,93.61
2023-04-21T22:48:38.351Z,93.19
2023-04-21T22:51:07.260Z,92.77
2023-04-21T22:53:35.593Z,92.03
2023-04-21T22:56:04.475Z,92.48
2023-04-21T22:58:32.441Z,92.08
2023-04-21T23:01:00.723Z,92.06
2023-04-21T23:03:31.276Z,92.15
2023-04-21T23:05:59.452Z,92.11
2023-04-21T23:08:27.419Z,91.80
2023-04-21T23:10:55.590Z,91.36
2023-04-21T23:13:23.663Z,91.69
2023-04-21T23:15:51.632Z,91.82
2023-04-21T23:18:19.538Z,91.99
2023-04-21T23:20:48.904Z,91.89
2023-04-21T23:23:16.801Z,92.13
2023-04-21T23:25:44.724Z,91.68
2023-04-21T23:28:12.723Z,91.93
2023-04-21T23:30:40.870Z,93.04
2023-04-21T23:33:09.092Z,94.21
2023-04-21T23:35:37.092Z,96.00
2023-04-21T23:38:06.381Z,96.94
2023-04-21T23:40:34.335Z,95.73
2023-04-21T23:43:02.294Z,95.16
2023-04-21T23:45:30.228Z,93.95
2023-04-21T23:47:58.196Z,93.67
2023-04-21T23:50:26.195Z,94.02
2023-04-21T23:52:54.136Z,92.24
2023-04-21T23:55:23.460Z,91.81
2023-04-21T23:57:51.409Z,91.80
